Time,TemperatureF,DewpointF,PressureIn,WindDirection,WindDirectionDegrees,WindSpeedMPH,WindSpeedGustMPH,Humidity,HourlyPrecipIn,Conditions,Clouds,dailyrainin,SoftwareType,DateUTC
2013-10-14 00:11:00,37.0,35.0,30.32,ENE,69,0.0,0.0,91,0.00,,,0.00,,2013-10-14 07:11:00,
2013-10-14 00:22:00,37.0,35.0,30.33,ENE,69,0.0,0.0,91,0.00,,,0.00,,2013-10-14 07:22:00,
2013-10-14 00:42:00,37.0,35.0,30.33,ENE,69,0.0,0.0,91,0.00,,,0.00,,2013-10-14 07:42:00,
2013-10-14 00:52:00,36.0,34.0,30.33,ENE,69,0.0,0.0,91,0.00,,,0.00,,2013-10-14 07:52:00,
2013-10-14 01:21:00,36.0,34.0,30.33,ENE,69,0.0,0.0,92,0.00,,,0.00,,2013-10-14 08:21:00,
2013-10-14 01:52:00,35.0,33.0,30.34,ENE,69,0.0,0.0,92,0.00,,,0.00,,2013-10-14 08:52:00,
2013-10-14 02:22:00,35.0,33.0,30.34,ENE,69,0.0,0.0,92,0.00,,,0.00,,2013-10-14 09:22:00,
2013-10-14 02:43:00,35.0,33.0,30.34,ENE,69,0.0,0.0,92,0.00,,,0.00,,2013-10-14 09:43:00,
2013-10-14 02:53:00,35.0,33.0,30.33,ENE,69,0.0,0.0,92,0.00,,,0.00,,2013-10-14 09:53:00,
2013-10-14 03:12:00,35.0,33.0,30.33,ENE,69,0.0,0.0,92,0.00,,,0.00,,2013-10-14 10:12:00,
2013-10-14 03:22:00,35.0,33.0,30.33,ENE,69,0.0,0.0,93,0.00,,,0.00,,2013-10-14 10:22:00,
2013-10-14 03:53:00,34.0,32.0,30.33,ENE,69,0.0,0.0,93,0.00,,,0.00,,2013-10-14 10:53:00,
2013-10-14 04:22:00,34.0,32.0,30.32,ENE,69,0.0,0.0,93,0.00,,,0.00,,2013-10-14 11:22:00,
2013-10-14 04:42:00,34.0,32.0,30.32,ENE,69,0.0,0.0,93,0.00,,,0.00,,2013-10-14 11:42:00,
2013-10-14 04:52:00,34.0,32.0,30.33,ENE,69,0.0,0.0,93,0.00,,,0.00,,2013-10-14 11:52:00,
2013-10-14 05:12:00,34.0,32.0,30.33,ENE,69,0.0,0.0,93,0.00,,,0.00,,2013-10-14 12:12:00,
2013-10-14 05:22:00,34.0,32.0,30.33,ENE,69,0.0,0.0,93,0.00,,,0.00,,2013-10-14 12:22:00,
2013-10-14 05:42:00,34.0,32.0,30.33,ENE,69,0.0,0.0,93,0.00,,,0.00,,2013-10-14 12:42:00,
2013-10-14 05:52:00,33.0,31.0,30.34,ENE,69,0.0,0.0,93,0.00,,,0.00,,2013-10-14 12:52:00,
2013-10-14 06:11:00,33.0,31.0,30.34,ENE,69,0.0,0.0,93,0.00,,,0.00,,2013-10-14 13:11:00,
2013-10-14 06:21:00,33.0,31.0,30.34,ENE,69,0.0,0.0,93,0.00,,,0.00,,2013-10-14 13:21:00,
2013-10-14 06:41:00,33.0,31.0,30.34,ENE,69,0.0,0.0,93,0.00,,,0.00,,2013-10-14 13:41:00,
2013-10-14 06:52:00,33.0,31.0,30.35,ENE,69,0.0,0.0,93,0.00,,,0.00,,2013-10-14 13:52:00,
2013-10-14 07:11:00,33.0,31.0,30.35,ENE,69,0.0,0.0,93,0.00,,,0.00,,2013-10-14 14:11:00,
2013-10-14 07:22:00,33.0,31.0,30.36,ENE,69,0.0,0.0,93,0.00,,,0.00,,2013-10-14 14:22:00,
2013-10-14 07:42:00,32.0,30.0,30.36,ENE,69,0.0,0.0,93,0.00,,,0.00,,2013-10-14 14:42:00,
2013-10-14 07:52:00,32.0,30.0,30.36,ENE,69,0.0,0.0,93,0.00,,,0.00,,2013-10-14 14:52:00,
2013-10-14 08:11:00,32.0,30.0,30.36,ENE,69,0.0,0.0,93,0.00,,,0.00,,2013-10-14 15:11:00,
2013-10-14 08:21:00,32.0,30.0,30.36,ENE,69,0.0,0.0,93,0.00,,,0.00,,2013-10-14 15:21:00,
2013-10-14 08:54:00,32.0,30.0,30.37,ENE,69,0.0,0.0,93,0.00,,,0.00,,2013-10-14 15:54:00,
2013-10-14 09:23:00,33.0,31.0,30.37,ENE,69,0.0,0.0,94,0.00,,,0.00,,2013-10-14 16:23:00,
2013-10-14 09:53:00,35.0,34.0,30.37,ENE,69,0.0,0.0,95,0.00,,,0.00,,2013-10-14 16:53:00,
2013-10-14 10:11:00,36.0,35.0,30.37,ENE,69,0.0,0.0,95,0.00,,,0.00,,2013-10-14 17:11:00,
2013-10-14 10:22:00,38.0,37.0,30.37,ENE,69,0.0,0.0,96,0.00,,,0.00,,2013-10-14 17:22:00,
2013-10-14 10:42:00,39.0,38.0,30.37,ENE,69,0.0,0.0,96,0.00,,,0.00,,2013-10-14 17:42:00,
2013-10-14 10:52:00,45.0,44.0,30.37,ENE,69,0.0,0.0,96,0.00,,,0.00,,2013-10-14 17:52:00,
2013-10-14 11:12:00,46.0,43.0,30.38,ENE,69,0.0,0.0,89,0.00,,,0.00,,2013-10-14 18:12:00,
2013-10-14 11:22:00,49.0,44.0,30.37,WSW,257,0.0,0.0,82,0.01,,,0.01,,2013-10-14 18:22:00,
2013-10-14 11:42:00,50.0,45.0,30.37,WSW,257,0.0,0.0,82,0.01,,,0.01,,2013-10-14 18:42:00,
2013-10-14 11:52:00,52.0,44.0,30.38,WSW,257,0.0,0.0,73,0.01,,,0.01,,2013-10-14 18:52:00,
2013-10-14 12:42:00,56.0,43.0,30.38,WSW,258,0.0,0.0,62,0.00,,,0.01,,2013-10-14 19:42:00,
2013-10-14 12:52:00,57.0,44.0,30.38,ENE,68,0.0,0.0,62,0.00,,,0.01,,2013-10-14 19:52:00,
2013-10-14 13:11:00,58.0,45.0,30.38,ENE,68,0.0,0.0,61,0.00,,,0.01,,2013-10-14 20:11:00,
2013-10-14 13:42:00,60.0,43.0,30.37,WSW,244,0.0,0.0,54,0.00,,,0.01,,2013-10-14 20:42:00,
2013-10-14 14:21:00,59.0,43.0,30.36,WSW,244,0.0,0.0,56,0.00,,,0.01,,2013-10-14 21:21:00,
2013-10-14 14:34:00,59.0,43.0,30.36,WSW,244,0.0,0.0,56,0.00,,,0.01,,2013-10-14 21:34:00,
2013-10-14 14:44:00,59.0,43.0,30.36,WSW,244,0.0,0.0,56,0.00,,,0.01,,2013-10-14 21:44:00,
2013-10-14 14:54:00,60.0,44.0,30.35,WNW,286,0.0,0.0,55,-99.99,,,-99.99,,2013-10-14 21:54:00,
2013-10-14 15:04:00,60.0,44.0,30.35,WNW,286,0.0,0.0,55,-99.99,,,-99.99,,2013-10-14 22:04:00,
2013-10-14 15:13:00,60.0,44.0,30.35,WNW,286,0.0,0.0,55,-99.99,,,-99.99,,2013-10-14 22:13:00,
2013-10-14 15:24:00,60.0,44.0,30.35,WNW,286,0.0,0.0,55,-99.99,,,-99.99,,2013-10-14 22:24:00,
2013-10-14 15:32:00,60.0,44.0,30.35,WNW,286,0.0,0.0,55,-99.99,,,-99.99,,2013-10-14 22:32:00,